KSSC/SSC METAR and TAF weather

Enter ICAO airport designator
Station Type Date Time Source
KSSC METAR 2022/05/25 00:56 UTC NOAA

KSSC 250056Z 01012KT 10SM SCT050 24/18 A3009 RMK AO2A LTG DSNT S SLPNO T02400179 $


Station Type Date Time Source
KSSC Decoded METAR 2022/05/25 00:56 UTC NOAA

Shaw Air Force Base, SC, United States (KSSC) 33-58N 080-29W 73M
May 24, 2022 - 08:56 PM EDT / 2022.05.25 0056 UTC
Wind: from the N (010 degrees) at 14 MPH (12 KT):0
Visibility: 10 mile(s):0
Sky conditions: partly cloudy
Weather: Lightning observed
Temperature: 75.2 F (24.0 C)
Dew Point: 64.2 F (17.9 C)
Relative Humidity: 68%
Pressure (altimeter): 30.09 in. Hg (1018 hPa)
ob: KSSC 250056Z 01012KT 10SM SCT050 24/18 A3009 RMK AO2A LTG DSNT S SLPNO T02400179
cycle: 1

Station Type Date Time Source
KSSC TAF 2022/05/24 23:27 UTC NOAA

TAF KSSC 242300Z 2423/2605 02009KT 9999 VCSH BKN030 BKN150 QNH3004INS
TEMPO 2504/2508 8000 -SHRA VCTS BKN025CB BKN120
BECMG 2509/2510 06009KT 8000 BR BKN010 OVC025 QNH3015INS
BECMG 2514/2515 06009KT 9999 NSW BKN020 OVC040 QNH3012INS
BECMG 2519/2520 08009KT 9999 VCSH BKN030 BKN180 QNH3011INS
BECMG 2600/2601 09009KT 8000 -SHRA BKN015 BKN030 QNH3014INS TX29/2520Z TN17/2511Z

Example: see airport list